Terminal Aerodrome Forecast
Issued by NWS

Home | Current Version | Previous Version | Text Only | Print | Product List | Glossary On
Versions: 1 2 3 4 5 6 7 8 9 10 11 12 13 14 15
000
FTPA31 PHFO 251132
TAFHNY
TAF
PHNY 251132Z 2512/2612 05011KT P6SM SCT020 SCT035
     FM252000 27007KT P6SM SCT020 BKN030
     FM260600 VRB06KT P6SM SCT020 SCT030=

USA.gov is the U.S. government's official web portal to all federal, state and local government web resources and services.